RJTC(METAR)
04/28 17:00
METAR RJTC 280800Z 18008KT 150V220 9999 FEW030 SCT060 19/03 Q1004
RMK 1CU030 3SC060 A2966=
戻る
トップページへ戻る
IMOC Co,.Ltd.